Time;durP1;ratioP1;P1;durP2;ratioP2;P2;SDS_P1;SDS_P2;PMS_P1;PMS_P2;Temp;Humidity;BMP_temperature;BMP_pressure;BME280_temperature;BME280_humidity;BME280_pressure;Samples;Min_cycle;Max_cycle;Signal;HPM_P1;HPM_P2
2022/08/29 00:01:55;;;;;;;5.40;3.50;;;;;;;;;;110955;1241;33206;-32
2022/08/29 00:04:26;;;;;;;5.90;3.80;;;;;;;;;;110998;1251;34399;-32
2022/08/29 00:07:01;;;;;;;6.40;4.10;;;;;;;;;;111003;1251;33288;-32
2022/08/29 00:09:32;;;;;;;6.70;3.80;;;;;;;;;;111014;1247;34929;-32
2022/08/29 00:12:03;;;;;;;5.60;3.90;;;;;;;;;;110997;1248;34872;-32
2022/08/29 00:14:34;;;;;;;5.10;3.60;;;;;;;;;;111009;1249;33836;-32
2022/08/29 00:17:05;;;;;;;5.00;3.60;;;;;;;;;;110972;1250;33778;-32
2022/08/29 00:19:36;;;;;;;5.60;3.50;;;;;;;;;;110997;1249;34977;-32
2022/08/29 00:22:07;;;;;;;6.30;3.90;;;;;;;;;;110998;1250;35060;-32
2022/08/29 00:24:38;;;;;;;4.80;3.50;;;;;;;;;;110968;1250;34796;-32
2022/08/29 00:27:08;;;;;;;5.80;4.00;;;;;;;;;;110997;1243;34947;-32
2022/08/29 00:29:39;;;;;;;6.40;4.10;;;;;;;;;;110988;1243;35177;-32
2022/08/29 00:32:10;;;;;;;5.60;4.10;;;;;;;;;;111014;1245;35142;-32
2022/08/29 00:34:44;;;;;;;6.20;4.20;;;;;;;;;;111007;1250;33256;-32
2022/08/29 00:37:15;;;;;;;5.50;3.70;;;;;;;;;;111026;1249;34983;-32
2022/08/29 00:39:45;;;;;;;5.60;3.90;;;;;;;;;;111015;1250;34898;-32
2022/08/29 00:42:16;;;;;;;5.00;3.70;;;;;;;;;;111009;1244;35041;-35
2022/08/29 00:44:47;;;;;;;6.20;4.00;;;;;;;;;;110993;1249;33339;-35
2022/08/29 00:47:21;;;;;;;5.70;4.20;;;;;;;;;;110992;1251;35018;-35
2022/08/29 00:49:55;;;;;;;5.40;3.80;;;;;;;;;;110990;1251;34974;-34
2022/08/29 00:52:36;;;;;;;5.40;4.10;;;;;;;;;;111006;1241;34264;-35
2022/08/29 00:55:14;;;;;;;5.70;3.80;;;;;;;;;;111002;1250;32725;-34
2022/08/29 00:57:48;;;;;;;5.10;3.60;;;;;;;;;;110991;1245;33306;-34
2022/08/29 01:00:19;;;;;;;5.60;4.00;;;;;;;;;;111013;1249;35414;-34
2022/08/29 01:02:50;;;;;;;6.10;4.00;;;;;;;;;;110990;1250;35369;-34
2022/08/29 01:05:21;;;;;;;6.60;4.20;;;;;;;;;;110979;1251;35299;-35
2022/08/29 01:07:52;;;;;;;6.00;4.10;;;;;;;;;;110968;1247;35089;-34
2022/08/29 01:13:13;;;;;;;5.60;4.10;;;;;;;;;;111002;1249;35172;-34
2022/08/29 01:15:45;;;;;;;5.70;4.30;;;;;;;;;;111010;1250;33450;-34
2022/08/29 01:18:17;;;;;;;5.20;4.20;;;;;;;;;;110971;1249;35008;-34
2022/08/29 01:21:00;;;;;;;6.40;4.20;;;;;;;;;;111000;1249;35172;-34
2022/08/29 01:23:35;;;;;;;5.30;4.00;;;;;;;;;;111001;1251;34291;-33
2022/08/29 01:26:07;;;;;;;6.00;4.40;;;;;;;;;;110990;1250;35187;-34
2022/08/29 01:28:40;;;;;;;5.80;4.30;;;;;;;;;;110968;1250;35407;-34
2022/08/29 01:31:14;;;;;;;6.60;4.40;;;;;;;;;;111040;1251;34968;-35
2022/08/29 01:33:48;;;;;;;6.20;4.30;;;;;;;;;;111027;1250;35163;-34
2022/08/29 01:36:22;;;;;;;5.40;4.50;;;;;;;;;;111001;1248;34961;-35
2022/08/29 01:38:53;;;;;;;5.40;4.20;;;;;;;;;;110864;1251;35397;-35
2022/08/29 01:41:29;;;;;;;5.70;4.20;;;;;;;;;;110985;1249;35035;-34
2022/08/29 01:44:00;;;;;;;5.90;4.80;;;;;;;;;;111005;1250;34946;-35
2022/08/29 01:46:34;;;;;;;6.30;4.70;;;;;;;;;;111002;1250;34236;-35
2022/08/29 01:49:08;;;;;;;5.80;4.60;;;;;;;;;;111008;1250;35123;-34
2022/08/29 01:51:41;;;;;;;5.80;4.90;;;;;;;;;;111007;1244;33647;-30
2022/08/29 01:54:12;;;;;;;5.80;4.40;;;;;;;;;;110979;1241;34801;-29
2022/08/29 01:56:47;;;;;;;6.20;4.60;;;;;;;;;;111009;1241;35365;-30
2022/08/29 01:59:24;;;;;;;6.50;4.30;;;;;;;;;;111000;1245;33493;-30
2022/08/29 02:01:57;;;;;;;5.90;4.50;;;;;;;;;;111010;1244;33281;-30
2022/08/29 02:04:30;;;;;;;5.50;4.40;;;;;;;;;;111004;1251;35474;-30
2022/08/29 02:07:01;;;;;;;5.90;4.70;;;;;;;;;;110976;1249;34905;-30
2022/08/29 02:09:32;;;;;;;5.70;4.50;;;;;;;;;;111008;1244;33256;-30
2022/08/29 02:12:05;;;;;;;5.40;4.70;;;;;;;;;;110985;1245;35065;-30
2022/08/29 02:14:37;;;;;;;6.00;4.90;;;;;;;;;;111006;1250;35377;-30
2022/08/29 02:17:08;;;;;;;6.50;4.60;;;;;;;;;;110974;1250;35265;-30
2022/08/29 02:19:40;;;;;;;5.40;4.20;;;;;;;;;;110993;1250;34365;-30
2022/08/29 02:22:12;;;;;;;6.00;4.90;;;;;;;;;;111007;1250;35061;-29
2022/08/29 02:24:42;;;;;;;6.10;4.90;;;;;;;;;;110979;1249;34254;-30
2022/08/29 02:27:13;;;;;;;6.00;4.90;;;;;;;;;;111008;1250;34908;-30
2022/08/29 02:29:44;;;;;;;6.40;5.20;;;;;;;;;;110988;1241;35109;-29
2022/08/29 02:32:15;;;;;;;6.50;5.20;;;;;;;;;;110974;1241;34930;-29
2022/08/29 02:34:46;;;;;;;7.30;5.40;;;;;;;;;;110994;1250;35202;-29
2022/08/29 02:37:18;;;;;;;6.80;5.20;;;;;;;;;;111017;1250;33721;-29
2022/08/29 02:39:48;;;;;;;7.10;6.10;;;;;;;;;;110993;1249;35022;-30
2022/08/29 02:42:19;;;;;;;7.80;6.10;;;;;;;;;;111008;1242;34075;-30
2022/08/29 02:44:50;;;;;;;8.10;6.20;;;;;;;;;;110964;1250;35580;-30
2022/08/29 02:47:21;;;;;;;7.00;5.90;;;;;;;;;;110985;1250;35068;-30
2022/08/29 02:49:51;;;;;;;6.90;6.10;;;;;;;;;;110964;1251;34865;-30
2022/08/29 02:52:22;;;;;;;7.20;6.00;;;;;;;;;;110934;1244;35186;-30
2022/08/29 02:54:53;;;;;;;7.60;6.10;;;;;;;;;;110976;1249;35405;-30
2022/08/29 02:57:24;;;;;;;8.90;7.10;;;;;;;;;;110997;1249;34379;-30
2022/08/29 02:59:55;;;;;;;7.50;6.40;;;;;;;;;;110983;1241;33803;-30
2022/08/29 03:02:26;;;;;;;8.60;6.90;;;;;;;;;;110986;1249;35220;-30
2022/08/29 03:04:58;;;;;;;7.70;6.80;;;;;;;;;;111001;1247;33277;-30
2022/08/29 03:07:29;;;;;;;9.30;7.70;;;;;;;;;;110971;1250;34286;-30
2022/08/29 03:10:03;;;;;;;8.80;6.90;;;;;;;;;;111005;1249;34632;-30
2022/08/29 03:12:34;;;;;;;9.50;8.10;;;;;;;;;;111018;1250;35123;-30
2022/08/29 03:15:07;;;;;;;9.00;7.50;;;;;;;;;;110931;1244;34038;-30
2022/08/29 03:17:38;;;;;;;8.30;7.40;;;;;;;;;;110998;1250;35634;-30
2022/08/29 03:20:13;;;;;;;8.60;7.70;;;;;;;;;;110979;1250;35039;-30
2022/08/29 03:22:43;;;;;;;9.10;7.80;;;;;;;;;;111001;1250;34937;-30
2022/08/29 03:25:16;;;;;;;9.10;8.20;;;;;;;;;;110999;1250;35100;-30
2022/08/29 03:27:47;;;;;;;9.30;7.90;;;;;;;;;;110970;1249;34997;-30
2022/08/29 03:30:18;;;;;;;9.30;8.30;;;;;;;;;;110995;1248;34950;-30
2022/08/29 03:32:49;;;;;;;9.50;8.50;;;;;;;;;;111011;1249;35880;-30
2022/08/29 03:35:21;;;;;;;10.20;9.20;;;;;;;;;;110962;1249;35026;-30
2022/08/29 03:37:54;;;;;;;9.60;8.40;;;;;;;;;;110997;1241;35099;-30
2022/08/29 03:40:27;;;;;;;9.40;8.50;;;;;;;;;;111018;1241;35544;-30
2022/08/29 03:42:59;;;;;;;9.00;8.10;;;;;;;;;;110968;1250;35017;-30
2022/08/29 03:45:32;;;;;;;9.70;8.40;;;;;;;;;;111020;1249;35658;-30
2022/08/29 03:48:03;;;;;;;10.00;8.40;;;;;;;;;;111003;1251;34368;-30
2022/08/29 03:50:34;;;;;;;9.90;8.90;;;;;;;;;;110959;1245;33309;-30
2022/08/29 03:53:05;;;;;;;9.70;8.70;;;;;;;;;;110990;1249;33723;-30
2022/08/29 03:55:36;;;;;;;9.30;8.40;;;;;;;;;;110964;1241;35441;-30
2022/08/29 03:58:07;;;;;;;9.50;8.50;;;;;;;;;;110929;1250;35511;-30
2022/08/29 04:00:38;;;;;;;9.70;8.70;;;;;;;;;;110979;1249;33358;-30
2022/08/29 04:03:09;;;;;;;9.70;8.70;;;;;;;;;;111000;1249;33974;-30
2022/08/29 04:05:39;;;;;;;9.20;8.20;;;;;;;;;;111006;1249;34414;-30
2022/08/29 04:08:10;;;;;;;9.00;8.10;;;;;;;;;;111023;1249;35006;-30
2022/08/29 04:10:41;;;;;;;8.70;7.80;;;;;;;;;;110977;1250;35046;-30
2022/08/29 04:13:12;;;;;;;9.80;8.80;;;;;;;;;;111001;1250;35039;-30
2022/08/29 04:15:43;;;;;;;9.00;8.10;;;;;;;;;;110982;1249;35073;-30
2022/08/29 04:18:17;;;;;;;9.50;8.60;;;;;;;;;;111022;1251;35247;-30
2022/08/29 04:20:48;;;;;;;9.60;8.60;;;;;;;;;;110988;1243;33682;-30
2022/08/29 04:23:19;;;;;;;9.90;8.30;;;;;;;;;;110958;1248;34261;-30
2022/08/29 04:25:50;;;;;;;9.30;8.30;;;;;;;;;;110942;1242;34971;-30
2022/08/29 04:28:20;;;;;;;9.10;8.20;;;;;;;;;;110987;1244;34906;-30
2022/08/29 04:30:52;;;;;;;9.50;8.50;;;;;;;;;;111009;1244;35055;-30
2022/08/29 04:33:25;;;;;;;9.90;8.90;;;;;;;;;;110997;1241;34375;-29
2022/08/29 04:35:55;;;;;;;9.00;8.10;;;;;;;;;;110989;1249;33877;-30
2022/08/29 04:38:26;;;;;;;9.30;8.40;;;;;;;;;;110973;1249;33230;-30
2022/08/29 04:40:57;;;;;;;9.50;8.40;;;;;;;;;;111030;1248;34924;-30
2022/08/29 04:43:28;;;;;;;9.10;8.20;;;;;;;;;;110998;1243;34386;-30
2022/08/29 04:45:59;;;;;;;8.80;7.60;;;;;;;;;;110989;1241;35064;-30
2022/08/29 04:48:31;;;;;;;8.60;7.60;;;;;;;;;;110991;1249;35047;-30
2022/08/29 04:51:02;;;;;;;8.40;7.50;;;;;;;;;;110992;1250;35518;-30
2022/08/29 04:53:35;;;;;;;7.80;7.00;;;;;;;;;;111027;1244;35351;-30
2022/08/29 04:56:08;;;;;;;8.80;7.50;;;;;;;;;;110988;1244;34899;-30
2022/08/29 04:58:40;;;;;;;9.40;6.90;;;;;;;;;;110995;1241;35118;-29
2022/08/29 05:01:14;;;;;;;8.80;7.30;;;;;;;;;;110989;1249;34917;-29
2022/08/29 05:03:48;;;;;;;7.90;7.10;;;;;;;;;;110997;1250;34944;-29
2022/08/29 05:06:20;;;;;;;7.40;6.50;;;;;;;;;;111012;1241;33688;-29
2022/08/29 05:08:54;;;;;;;6.90;5.60;;;;;;;;;;111022;1250;35070;-28
2022/08/29 05:11:25;;;;;;;6.80;5.80;;;;;;;;;;110472;1245;642807;-30
2022/08/29 05:13:55;;;;;;;7.70;6.30;;;;;;;;;;111033;1249;34418;-30
2022/08/29 05:16:28;;;;;;;6.80;6.10;;;;;;;;;;111030;1249;34960;-30
2022/08/29 05:18:59;;;;;;;;;;;;;;;;;;111031;1250;34963;-29
2022/08/29 05:21:35;;;;;;;6.90;5.90;;;;;;;;;;111028;1249;35014;-29
2022/08/29 05:24:09;;;;;;;7.20;5.70;;;;;;;;;;110993;1244;35480;-29
2022/08/29 05:26:39;;;;;;;;;;;;;;;;;;111010;1249;33208;-29
2022/08/29 05:29:12;;;;;;;5.70;4.70;;;;;;;;;;111010;1247;34602;-29
2022/08/29 05:31:44;;;;;;;6.20;4.80;;;;;;;;;;110999;1245;34974;-29
2022/08/29 05:34:17;;;;;;;7.10;5.60;;;;;;;;;;111011;1245;33526;-29
2022/08/29 05:36:47;;;;;;;6.50;4.80;;;;;;;;;;111026;1241;34951;-30
2022/08/29 05:39:19;;;;;;;6.10;5.20;;;;;;;;;;110966;1250;35227;-29
2022/08/29 05:41:50;;;;;;;6.00;4.40;;;;;;;;;;110996;1241;33196;-30
2022/08/29 05:44:21;;;;;;;6.40;4.60;;;;;;;;;;110976;1249;33316;-29
2022/08/29 05:46:52;;;;;;;6.00;4.30;;;;;;;;;;110998;1245;35084;-29
2022/08/29 05:49:24;;;;;;;5.30;4.20;;;;;;;;;;110993;1245;34924;-29
2022/08/29 05:51:55;;;;;;;5.70;4.80;;;;;;;;;;111003;1243;35104;-29
2022/08/29 05:54:26;;;;;;;5.30;4.10;;;;;;;;;;110999;1249;35375;-29
2022/08/29 05:56:57;;;;;;;5.00;4.10;;;;;;;;;;110969;1250;35092;-29
2022/08/29 05:59:29;;;;;;;5.40;4.00;;;;;;;;;;110979;1245;35370;-29
2022/08/29 06:01:59;;;;;;;5.30;4.00;;;;;;;;;;111007;1250;35185;-29
2022/08/29 06:04:33;;;;;;;5.90;4.30;;;;;;;;;;111003;1249;35027;-29
2022/08/29 06:07:05;;;;;;;5.80;4.10;;;;;;;;;;110986;1249;35003;-29
2022/08/29 06:09:38;;;;;;;6.00;4.30;;;;;;;;;;111007;1249;34354;-29
2022/08/29 06:12:13;;;;;;;6.10;4.00;;;;;;;;;;110974;1245;35069;-29
2022/08/29 06:14:45;;;;;;;5.10;3.90;;;;;;;;;;111010;1249;35339;-30
2022/08/29 06:17:15;;;;;;;5.70;4.30;;;;;;;;;;111002;1249;34940;-29
2022/08/29 06:19:49;;;;;;;5.70;3.90;;;;;;;;;;110982;1241;34896;-29
2022/08/29 06:22:21;;;;;;;5.70;4.10;;;;;;;;;;110986;1249;35720;-29
2022/08/29 06:24:54;;;;;;;5.50;3.80;;;;;;;;;;110973;1249;34662;-29
2022/08/29 06:27:25;;;;;;;6.20;4.20;;;;;;;;;;110970;1249;34939;-29
2022/08/29 06:29:56;;;;;;;5.30;4.00;;;;;;;;;;110981;1249;35293;-30
2022/08/29 06:32:27;;;;;;;6.40;3.70;;;;;;;;;;111013;1250;33323;-30
2022/08/29 06:35:00;;;;;;;5.20;3.80;;;;;;;;;;110958;1241;33634;-30
2022/08/29 06:37:31;;;;;;;5.40;3.90;;;;;;;;;;110941;1241;35027;-30
2022/08/29 06:40:02;;;;;;;4.90;3.90;;;;;;;;;;111013;1241;34995;-29
2022/08/29 06:42:33;;;;;;;5.50;4.20;;;;;;;;;;110993;1242;34964;-29
2022/08/29 06:45:06;;;;;;;5.00;3.80;;;;;;;;;;111001;1249;34931;-29
2022/08/29 06:47:36;;;;;;;5.20;4.00;;;;;;;;;;111011;1241;35137;-29
2022/08/29 06:50:09;;;;;;;5.10;3.50;;;;;;;;;;110996;1249;35363;-30
2022/08/29 06:52:41;;;;;;;4.90;3.30;;;;;;;;;;110999;1249;34871;-30
2022/08/29 06:55:12;;;;;;;5.00;3.40;;;;;;;;;;110974;1241;34309;-30
2022/08/29 06:57:45;;;;;;;4.90;3.50;;;;;;;;;;110993;1250;35105;-30
2022/08/29 07:00:16;;;;;;;;;;;;;;;;;;110954;1243;34532;-29
2022/08/29 07:02:49;;;;;;;5.40;3.50;;;;;;;;;;110947;1249;33172;-29
2022/08/29 07:05:21;;;;;;;4.80;3.50;;;;;;;;;;110994;1241;34988;-29
2022/08/29 07:07:52;;;;;;;5.10;3.50;;;;;;;;;;111001;1249;33313;-29
2022/08/29 07:10:23;;;;;;;4.70;3.70;;;;;;;;;;110975;1249;34940;-29
2022/08/29 07:12:57;;;;;;;6.20;4.00;;;;;;;;;;110992;1242;33345;-29
2022/08/29 07:15:28;;;;;;;5.20;4.20;;;;;;;;;;110990;1245;34973;-29
2022/08/29 07:17:59;;;;;;;5.30;4.20;;;;;;;;;;111004;1249;34350;-29
2022/08/29 07:20:33;;;;;;;5.50;3.80;;;;;;;;;;110977;1242;34210;-29
2022/08/29 07:23:05;;;;;;;6.20;4.20;;;;;;;;;;110967;1250;34374;-29
2022/08/29 07:25:41;;;;;;;5.70;4.70;;;;;;;;;;111041;1241;35061;-29
2022/08/29 07:28:12;;;;;;;5.80;4.80;;;;;;;;;;111004;1249;35024;-29
2022/08/29 07:30:46;;;;;;;7.00;4.60;;;;;;;;;;111032;1250;34953;-29
2022/08/29 07:33:17;;;;;;;6.90;4.90;;;;;;;;;;110947;1250;34965;-29
2022/08/29 07:35:53;;;;;;;6.60;4.90;;;;;;;;;;110936;1250;34882;-29
2022/08/29 07:38:24;;;;;;;6.20;4.80;;;;;;;;;;110961;1249;34836;-29
2022/08/29 07:41:00;;;;;;;8.20;5.40;;;;;;;;;;110936;1241;35002;-29
2022/08/29 07:43:31;;;;;;;7.20;5.10;;;;;;;;;;110792;1251;35152;-29
2022/08/29 07:46:06;;;;;;;6.90;4.60;;;;;;;;;;110941;1250;35543;-29
2022/08/29 07:48:38;;;;;;;7.80;4.80;;;;;;;;;;110979;1250;34433;-29
2022/08/29 07:51:14;;;;;;;5.70;4.50;;;;;;;;;;111006;1241;33931;-29
2022/08/29 07:53:46;;;;;;;6.40;4.60;;;;;;;;;;110992;1244;35397;-29
2022/08/29 07:56:19;;;;;;;6.90;5.30;;;;;;;;;;111012;1241;35515;-30
2022/08/29 07:58:51;;;;;;;7.30;5.30;;;;;;;;;;110889;1250;35790;-30
2022/08/29 08:01:25;;;;;;;6.10;5.10;;;;;;;;;;110939;1250;35679;-31
2022/08/29 08:03:55;;;;;;;6.70;5.50;;;;;;;;;;110921;1245;35058;-31
2022/08/29 08:06:27;;;;;;;6.40;4.60;;;;;;;;;;110802;1250;35217;-30
2022/08/29 08:08:58;;;;;;;6.70;5.00;;;;;;;;;;110832;1244;33383;-29
2022/08/29 08:11:28;;;;;;;6.90;4.50;;;;;;;;;;110845;1250;35226;-30
2022/08/29 08:13:59;;;;;;;7.20;4.90;;;;;;;;;;110804;1250;35986;-29
2022/08/29 08:16:32;;;;;;;8.20;4.50;;;;;;;;;;110844;1244;35751;-30
2022/08/29 08:19:05;;;;;;;7.10;4.50;;;;;;;;;;110820;1250;34932;-29
2022/08/29 08:21:36;;;;;;;6.60;4.80;;;;;;;;;;110843;1250;34747;-28
2022/08/29 08:24:08;;;;;;;6.90;5.00;;;;;;;;;;110807;1244;33370;-28
2022/08/29 08:26:39;;;;;;;7.60;4.60;;;;;;;;;;110814;1250;33236;-28
2022/08/29 08:29:11;;;;;;;8.30;5.80;;;;;;;;;;110834;1244;33415;-28
2022/08/29 08:31:45;;;;;;;6.70;5.70;;;;;;;;;;110844;1244;35621;-29
2022/08/29 08:34:20;;;;;;;6.90;5.30;;;;;;;;;;110939;1241;35376;-29
2022/08/29 08:36:51;;;;;;;8.20;5.30;;;;;;;;;;110992;1249;33234;-29
2022/08/29 08:39:22;;;;;;;8.70;5.60;;;;;;;;;;110989;1249;35132;-29
2022/08/29 08:42:07;;;;;;;7.10;5.40;;;;;;;;;;110989;1244;35333;-30
2022/08/29 08:45:01;;;;;;;6.80;5.30;;;;;;;;;;111005;1249;35361;-31
2022/08/29 08:47:36;;;;;;;6.50;4.90;;;;;;;;;;110960;1241;35202;-29
2022/08/29 08:50:11;;;;;;;8.10;5.70;;;;;;;;;;111006;1249;33242;-32
2022/08/29 08:52:47;;;;;;;6.70;5.70;;;;;;;;;;111011;1249;34347;-31
2022/08/29 08:55:25;;;;;;;6.90;5.40;;;;;;;;;;110978;1249;35123;-31
2022/08/29 08:58:02;;;;;;;9.40;6.60;;;;;;;;;;111021;1244;34939;-31
2022/08/29 09:00:39;;;;;;;7.80;6.70;;;;;;;;;;111034;1249;33301;-31
2022/08/29 09:03:18;;;;;;;8.70;6.80;;;;;;;;;;111009;1249;33661;-32
2022/08/29 09:06:01;;;;;;;8.20;6.30;;;;;;;;;;110977;1249;34853;-32
2022/08/29 09:08:42;;;;;;;8.20;6.70;;;;;;;;;;110989;1241;33453;-32
2022/08/29 09:11:19;;;;;;;7.40;6.00;;;;;;;;;;110965;1244;35528;-31
2022/08/29 09:13:59;;;;;;;8.30;7.00;;;;;;;;;;111010;1244;35598;-29
2022/08/29 09:16:36;;;;;;;9.10;5.90;;;;;;;;;;111038;1250;35326;-32
2022/08/29 09:19:09;;;;;;;8.20;6.30;;;;;;;;;;110989;1249;33281;-32
2022/08/29 09:21:45;;;;;;;6.80;6.10;;;;;;;;;;110996;1249;34880;-36
2022/08/29 09:24:20;;;;;;;7.50;6.30;;;;;;;;;;111020;1244;35250;-36
2022/08/29 09:26:51;;;;;;;7.30;6.50;;;;;;;;;;110873;1249;35599;-32
2022/08/29 09:29:22;;;;;;;7.80;7.00;;;;;;;;;;110843;1250;35051;-32
2022/08/29 09:32:08;;;;;;;7.00;6.30;;;;;;;;;;110845;1250;34938;-30
2022/08/29 09:34:43;;;;;;;7.80;6.80;;;;;;;;;;110855;1250;35364;-30
2022/08/29 09:37:26;;;;;;;8.00;7.20;;;;;;;;;;110829;1250;35302;-30
2022/08/29 09:40:02;;;;;;;6.90;6.20;;;;;;;;;;110862;1243;35363;-30
2022/08/29 09:42:36;;;;;;;8.10;6.60;;;;;;;;;;110847;1250;34896;-30
2022/08/29 09:45:19;;;;;;;7.70;6.90;;;;;;;;;;110867;1250;34879;-30
2022/08/29 09:47:50;;;;;;;9.80;7.00;;;;;;;;;;110841;1244;35081;-34
2022/08/29 09:50:25;;;;;;;9.60;8.10;;;;;;;;;;110832;1250;35271;-34
2022/08/29 09:53:00;;;;;;;8.70;7.10;;;;;;;;;;110869;1244;35583;-34
2022/08/29 09:55:34;;;;;;;7.50;6.70;;;;;;;;;;110843;1250;33329;-34
2022/08/29 09:58:10;;;;;;;8.50;6.80;;;;;;;;;;110943;1248;33717;-35
2022/08/29 10:00:43;;;;;;;8.50;7.10;;;;;;;;;;110974;1244;34262;-34
2022/08/29 10:03:23;;;;;;;7.50;6.70;;;;;;;;;;110687;1244;35223;-30
2022/08/29 10:06:05;;;;;;;7.40;6.70;;;;;;;;;;110857;1250;35085;-30
2022/08/29 10:08:37;;;;;;;7.70;6.30;;;;;;;;;;110946;1249;34913;-31
2022/08/29 10:11:20;;;;;;;7.00;6.30;;;;;;;;;;110864;1250;34361;-30
2022/08/29 10:13:56;;;;;;;7.60;5.70;;;;;;;;;;111015;1244;35185;-27
2022/08/29 10:16:36;;;;;;;8.20;5.30;;;;;;;;;;111011;1244;35380;-28
2022/08/29 10:19:12;;;;;;;7.30;5.40;;;;;;;;;;110905;1245;35026;-28
2022/08/29 10:21:53;;;;;;;6.60;4.70;;;;;;;;;;111002;1249;34990;-30
2022/08/29 10:24:32;;;;;;;8.40;5.10;;;;;;;;;;110953;1249;34258;-30
2022/08/29 10:27:16;;;;;;;7.60;4.70;;;;;;;;;;110969;1249;34978;-32
2022/08/29 10:30:11;;;;;;;6.00;3.70;;;;;;;;;;110939;1243;34356;-33
2022/08/29 10:32:56;;;;;;;9.20;4.30;;;;;;;;;;110945;1249;34381;-33
2022/08/29 10:35:35;;;;;;;7.90;4.20;;;;;;;;;;110921;1249;35349;-34
2022/08/29 10:38:16;;;;;;;8.30;4.00;;;;;;;;;;110933;1250;35641;-31
2022/08/29 10:40:49;;;;;;;4.80;3.40;;;;;;;;;;110973;1249;34951;-33
2022/08/29 10:43:38;;;;;;;5.60;3.70;;;;;;;;;;110959;1249;33233;-33
2022/08/29 10:46:26;;;;;;;6.60;3.40;;;;;;;;;;110974;1241;35184;-32
2022/08/29 10:49:03;;;;;;;5.90;3.00;;;;;;;;;;110808;1250;35484;-33
2022/08/29 10:51:40;;;;;;;8.70;3.40;;;;;;;;;;110938;1250;35310;-29
2022/08/29 10:54:23;;;;;;;6.30;3.20;;;;;;;;;;110974;1244;35248;-29
2022/08/29 10:56:54;;;;;;;6.50;3.10;;;;;;;;;;110961;1249;33787;-30
2022/08/29 10:59:41;;;;;;;5.50;3.30;;;;;;;;;;110942;1249;35041;-31
2022/08/29 11:02:19;;;;;;;5.00;2.80;;;;;;;;;;110973;1249;35266;-30
2022/08/29 11:04:53;;;;;;;5.30;3.00;;;;;;;;;;110958;1249;34899;-29
2022/08/29 11:07:30;;;;;;;5.20;3.10;;;;;;;;;;110947;1250;33560;-29
2022/08/29 11:10:04;;;;;;;6.30;3.10;;;;;;;;;;110893;1244;35534;-29
2022/08/29 11:12:44;;;;;;;5.90;3.30;;;;;;;;;;110827;1250;35164;-29
2022/08/29 11:15:21;;;;;;;5.20;3.30;;;;;;;;;;110955;1249;34343;-31
2022/08/29 11:18:04;;;;;;;5.90;3.40;;;;;;;;;;110958;1250;35414;-30
2022/08/29 11:20:42;;;;;;;4.80;2.70;;;;;;;;;;110995;1250;35191;-29
2022/08/29 11:23:18;;;;;;;5.80;3.00;;;;;;;;;;110968;1243;35214;-33
2022/08/29 11:25:52;;;;;;;5.60;3.10;;;;;;;;;;110968;1241;33297;-34
2022/08/29 11:28:29;;;;;;;5.00;3.20;;;;;;;;;;110968;1249;34862;-34
2022/08/29 11:31:07;;;;;;;6.70;3.20;;;;;;;;;;110814;1249;35170;-32
2022/08/29 11:33:42;;;;;;;5.10;2.90;;;;;;;;;;110984;1250;35248;-31
2022/08/29 11:36:29;;;;;;;4.20;2.70;;;;;;;;;;110983;1249;35602;-33
2022/08/29 11:39:22;;;;;;;5.20;2.60;;;;;;;;;;110851;1248;33694;-31
2022/08/29 11:41:56;;;;;;;5.70;3.00;;;;;;;;;;110955;1250;33265;-29
2022/08/29 11:44:29;;;;;;;5.50;3.10;;;;;;;;;;110992;1250;33649;-30
2022/08/29 11:47:01;;;;;;;5.90;2.50;;;;;;;;;;110847;1244;34919;-31
2022/08/29 11:49:43;;;;;;;5.60;2.90;;;;;;;;;;110967;1250;33304;-30
2022/08/29 11:52:24;;;;;;;5.00;2.90;;;;;;;;;;110948;1241;36033;-31
2022/08/29 11:55:17;;;;;;;6.10;3.00;;;;;;;;;;110990;1249;35622;-36
2022/08/29 11:57:56;;;;;;;5.90;3.10;;;;;;;;;;111016;1250;35380;-34
2022/08/29 12:00:45;;;;;;;5.30;3.00;;;;;;;;;;111040;1245;34428;-32
2022/08/29 12:03:45;;;;;;;4.50;2.60;;;;;;;;;;110886;1249;34912;-34
2022/08/29 12:06:52;;;;;;;6.00;3.10;;;;;;;;;;110432;1247;36170;-34
2022/08/29 12:09:51;;;;;;;5.00;3.00;;;;;;;;;;110955;1249;35210;-33
2022/08/29 12:12:42;;;;;;;4.90;3.00;;;;;;;;;;111006;1250;35259;-34
2022/08/29 12:15:58;;;;;;;5.00;3.10;;;;;;;;;;110863;1250;35438;-33
2022/08/29 12:18:39;;;;;;;4.00;2.80;;;;;;;;;;110956;1249;36475;-32
2022/08/29 12:21:40;;;;;;;7.00;2.90;;;;;;;;;;110795;1244;35377;-32
2022/08/29 12:24:41;;;;;;;5.70;2.80;;;;;;;;;;110968;1249;34517;-33
2022/08/29 12:27:38;;;;;;;6.70;3.20;;;;;;;;;;110866;1250;34388;-33
2022/08/29 12:30:12;;;;;;;4.60;2.70;;;;;;;;;;110900;1249;35061;-33
2022/08/29 12:32:55;;;;;;;5.70;3.30;;;;;;;;;;110985;1249;35589;-33
2022/08/29 12:35:35;;;;;;;4.40;2.90;;;;;;;;;;110984;1244;36740;-33
2022/08/29 12:38:15;;;;;;;5.50;2.70;;;;;;;;;;111071;1241;33701;-34
2022/08/29 12:40:55;;;;;;;4.90;2.60;;;;;;;;;;111000;1249;33067;-32
2022/08/29 12:43:36;;;;;;;4.50;2.80;;;;;;;;;;110976;1241;35491;-33
2022/08/29 12:46:15;;;;;;;4.60;2.40;;;;;;;;;;111004;1249;34410;-33
2022/08/29 12:48:54;;;;;;;4.80;2.60;;;;;;;;;;110984;1241;34664;-33
2022/08/29 12:51:41;;;;;;;4.60;2.40;;;;;;;;;;110927;1249;35662;-34
2022/08/29 12:54:28;;;;;;;5.60;2.80;;;;;;;;;;111000;1241;35399;-34
2022/08/29 12:57:00;;;;;;;4.80;2.40;;;;;;;;;;111056;1250;35070;-33
2022/08/29 12:59:37;;;;;;;5.00;2.50;;;;;;;;;;111009;1243;33978;-34
2022/08/29 13:02:21;;;;;;;4.80;2.20;;;;;;;;;;111015;1244;35121;-33
2022/08/29 13:04:53;;;;;;;4.90;2.40;;;;;;;;;;110917;1249;35229;-33
2022/08/29 13:07:24;;;;;;;6.40;2.70;;;;;;;;;;111009;1249;33961;-34
2022/08/29 13:09:57;;;;;;;4.20;2.30;;;;;;;;;;110931;1249;33314;-34
2022/08/29 13:12:33;;;;;;;5.50;2.40;;;;;;;;;;110732;1241;34060;-35
2022/08/29 13:15:16;;;;;;;4.60;2.40;;;;;;;;;;111040;1250;35237;-34
2022/08/29 13:17:51;;;;;;;4.10;2.40;;;;;;;;;;111062;1249;33577;-34
2022/08/29 13:20:47;;;;;;;4.80;2.30;;;;;;;;;;111014;1250;35270;-31
2022/08/29 13:23:25;;;;;;;5.10;2.60;;;;;;;;;;110875;1244;35676;-35
2022/08/29 13:26:03;;;;;;;5.40;2.20;;;;;;;;;;110941;1244;35020;-34
2022/08/29 13:28:42;;;;;;;4.60;2.30;;;;;;;;;;110935;1249;35409;-35
2022/08/29 13:31:31;;;;;;;5.10;2.30;;;;;;;;;;110926;1249;34927;-35
2022/08/29 13:34:14;;;;;;;5.10;2.20;;;;;;;;;;110937;1250;35307;-33
2022/08/29 13:36:57;;;;;;;4.70;2.10;;;;;;;;;;110972;1242;34360;-35
2022/08/29 13:39:43;;;;;;;4.20;2.00;;;;;;;;;;110980;1249;35400;-34
2022/08/29 13:42:34;;;;;;;4.90;2.20;;;;;;;;;;111003;1245;33941;-33
2022/08/29 13:45:15;;;;;;;4.80;2.10;;;;;;;;;;110847;1250;34856;-33
2022/08/29 13:48:06;;;;;;;4.80;2.00;;;;;;;;;;110949;1245;33207;-34
2022/08/29 13:50:38;;;;;;;4.20;2.00;;;;;;;;;;110929;1245;33297;-34
2022/08/29 13:53:09;;;;;;;5.00;2.10;;;;;;;;;;110948;1241;33710;-34
2022/08/29 13:55:44;;;;;;;;;;;;;;;;;;110817;1245;36678;-34
2022/08/29 13:58:16;;;;;;;5.10;1.90;;;;;;;;;;110935;1249;35612;-33
2022/08/29 14:00:47;;;;;;;3.40;1.50;;;;;;;;;;110911;1249;35639;-33
2022/08/29 14:03:18;;;;;;;5.00;2.30;;;;;;;;;;110906;1249;34907;-32
2022/08/29 14:05:55;;;;;;;6.60;2.00;;;;;;;;;;110924;1249;35129;-32
2022/08/29 14:08:25;;;;;;;4.50;1.60;;;;;;;;;;110943;1250;35221;-32
2022/08/29 14:10:59;;;;;;;4.30;1.90;;;;;;;;;;110819;1250;35059;-32
2022/08/29 14:13:30;;;;;;;5.30;2.20;;;;;;;;;;110947;1241;35808;-32
2022/08/29 14:16:02;;;;;;;3.90;2.20;;;;;;;;;;110945;1250;34568;-32
2022/08/29 14:18:32;;;;;;;5.50;2.00;;;;;;;;;;110984;1245;35211;-33
2022/08/29 14:21:03;;;;;;;4.20;2.30;;;;;;;;;;110947;1250;37748;-34
2022/08/29 14:23:38;;;;;;;4.50;2.10;;;;;;;;;;110954;1250;35176;-35
2022/08/29 14:26:09;;;;;;;4.10;1.90;;;;;;;;;;110944;1251;35132;-35
2022/08/29 14:28:42;;;;;;;4.10;1.80;;;;;;;;;;110969;1244;35395;-33
2022/08/29 14:31:12;;;;;;;4.30;2.00;;;;;;;;;;110782;1251;35394;-32
2022/08/29 14:33:43;;;;;;;5.90;2.20;;;;;;;;;;110948;1249;35006;-32
2022/08/29 14:36:14;;;;;;;4.50;1.90;;;;;;;;;;110906;1250;34879;-32
2022/08/29 14:38:45;;;;;;;7.10;2.10;;;;;;;;;;110926;1249;33254;-34
2022/08/29 14:41:20;;;;;;;5.20;1.60;;;;;;;;;;110914;1249;34884;-35
2022/08/29 14:43:52;;;;;;;4.00;1.90;;;;;;;;;;110899;1243;35196;-35
2022/08/29 14:46:23;;;;;;;4.50;1.70;;;;;;;;;;110922;1244;35342;-34
2022/08/29 14:48:56;;;;;;;5.20;2.10;;;;;;;;;;110879;1250;34988;-34
2022/08/29 14:51:27;;;;;;;3.50;1.50;;;;;;;;;;110844;1249;35112;-35
2022/08/29 14:53:58;;;;;;;6.10;2.30;;;;;;;;;;110904;1245;34214;-36
2022/08/29 14:56:33;;;;;;;5.30;2.10;;;;;;;;;;110898;1245;34998;-36
2022/08/29 14:59:05;;;;;;;4.30;1.60;;;;;;;;;;110775;1250;35115;-36
2022/08/29 15:01:39;;;;;;;4.30;1.90;;;;;;;;;;110917;1250;35276;-35
2022/08/29 15:04:10;;;;;;;6.00;2.10;;;;;;;;;;110892;1250;35749;-35
2022/08/29 15:06:41;;;;;;;5.20;2.00;;;;;;;;;;110944;1250;33329;-35
2022/08/29 15:09:14;;;;;;;4.50;2.20;;;;;;;;;;110846;1250;35260;-35
2022/08/29 15:11:45;;;;;;;5.10;2.10;;;;;;;;;;110910;1250;34464;-35
2022/08/29 15:14:16;;;;;;;4.30;1.80;;;;;;;;;;110911;1250;36643;-35
2022/08/29 15:16:47;;;;;;;4.40;2.00;;;;;;;;;;110883;1250;33467;-35
2022/08/29 15:19:19;;;;;;;4.20;1.90;;;;;;;;;;110911;1244;34928;-35